Time;durP1;ratioP1;P1;durP2;ratioP2;P2;SDS_P1;SDS_P2;PMS_P1;PMS_P2;Temp;Humidity;BMP_temperature;BMP_pressure;BME280_temperature;BME280_humidity;BME280_pressure;Samples;Min_cycle;Max_cycle;Signal;HPM_P1;HPM_P2
2021/10/23 00:00:48;;;;;;;11.05;1.40;;;7.60;99.90;;;;;;5089174;27;20511;-83
2021/10/23 00:03:13;;;;;;;11.05;1.33;;;7.60;99.90;;;;;;5106602;28;20048;-82
2021/10/23 00:05:39;;;;;;;14.05;1.13;;;7.60;99.90;;;;;;5053404;28;20490;-82
2021/10/23 00:08:05;;;;;;;8.32;1.10;;;7.60;99.90;;;;;;5106943;27;20128;-82
2021/10/23 00:10:31;;;;;;;15.90;1.63;;;7.60;99.90;;;;;;5066255;28;20078;-82
2021/10/23 00:12:57;;;;;;;13.10;1.30;;;7.60;99.90;;;;;;5084246;27;20100;-82
2021/10/23 00:15:22;;;;;;;13.40;1.30;;;7.70;99.90;;;;;;5122716;27;20082;-82
2021/10/23 00:17:48;;;;;;;17.65;1.90;;;7.70;99.90;;;;;;5080327;28;20099;-82
2021/10/23 00:20:14;;;;;;;6.10;1.10;;;7.70;99.90;;;;;;5099923;28;20052;-82
2021/10/23 00:22:40;;;;;;;12.45;1.63;;;7.70;99.90;;;;;;5101009;27;20095;-82
2021/10/23 00:25:06;;;;;;;16.50;1.50;;;7.70;99.90;;;;;;5104827;28;20122;-82
2021/10/23 00:27:32;;;;;;;12.15;1.48;;;7.70;99.90;;;;;;5108546;28;20055;-83
2021/10/23 00:30:00;;;;;;;12.18;1.08;;;7.70;99.90;;;;;;5131009;27;20422;-82
2021/10/23 00:32:27;;;;;;;15.25;1.55;;;7.70;99.90;;;;;;5107035;28;20044;-83
2021/10/23 00:34:53;;;;;;;9.93;1.50;;;7.70;99.90;;;;;;5070377;28;20157;-82
2021/10/23 00:37:19;;;;;;;16.23;2.42;;;7.70;99.90;;;;;;5096783;28;20168;-82
2021/10/23 00:39:45;;;;;;;12.48;1.30;;;7.80;99.90;;;;;;5099010;28;20051;-83
2021/10/23 00:42:11;;;;;;;11.43;1.48;;;7.70;99.90;;;;;;5113903;28;20040;-83
2021/10/23 00:44:41;;;;;;;9.35;1.23;;;7.70;99.90;;;;;;5087076;28;20051;-83
2021/10/23 00:47:09;;;;;;;11.15;1.40;;;7.70;99.90;;;;;;5080643;28;20051;-83
2021/10/23 00:49:36;;;;;;;10.57;1.23;;;7.70;99.90;;;;;;5107687;28;20047;-83
2021/10/23 00:52:04;;;;;;;10.98;1.65;;;7.60;99.90;;;;;;5107717;28;20118;-83
2021/10/23 00:54:30;;;;;;;10.15;1.40;;;7.60;99.90;;;;;;5090769;28;20044;-83
2021/10/23 00:56:57;;;;;;;15.10;2.30;;;7.60;99.90;;;;;;5119482;28;20043;-83
2021/10/23 00:59:24;;;;;;;10.50;1.00;;;7.50;99.90;;;;;;5109844;28;20058;-82
2021/10/23 01:01:50;;;;;;;9.45;1.40;;;7.50;99.90;;;;;;5112034;28;20156;-82
2021/10/23 01:04:18;;;;;;;12.77;1.38;;;7.60;99.90;;;;;;5123954;28;20590;-82
2021/10/23 01:06:44;;;;;;;8.70;1.02;;;7.50;99.90;;;;;;5090294;28;20407;-82
2021/10/23 01:09:10;;;;;;;6.20;1.00;;;7.50;99.90;;;;;;5061086;28;20048;-82
2021/10/23 01:11:36;;;;;;;8.40;1.27;;;7.50;99.90;;;;;;5132368;27;20036;-82
2021/10/23 01:14:02;;;;;;;16.20;1.60;;;7.50;99.90;;;;;;5121830;28;20190;-82
2021/10/23 01:16:28;;;;;;;13.80;1.27;;;7.60;99.90;;;;;;5107071;28;20093;-82
2021/10/23 01:18:53;;;;;;;10.35;1.55;;;7.60;99.90;;;;;;5124056;28;20043;-82
2021/10/23 01:21:23;;;;;;;11.02;1.13;;;7.60;99.90;;;;;;5073775;28;20487;-82
2021/10/23 01:23:50;;;;;;;17.70;1.13;;;7.60;99.90;;;;;;5110616;28;20517;-82
2021/10/23 01:26:22;;;;;;;7.00;0.82;;;7.60;99.90;;;;;;5124239;28;20036;-82
2021/10/23 01:28:47;;;;;;;9.07;1.13;;;7.60;99.90;;;;;;5106691;28;20148;-82
2021/10/23 01:31:13;;;;;;;14.93;1.50;;;7.60;99.90;;;;;;5108038;28;20512;-82
2021/10/23 01:33:39;;;;;;;2.67;0.68;;;7.60;99.90;;;;;;5121521;27;20117;-82
2021/10/23 01:36:16;;;;;;;6.28;1.00;;;7.60;99.90;;;;;;5110232;28;20039;-82
2021/10/23 01:38:42;;;;;;;6.15;1.00;;;7.60;99.90;;;;;;5101997;27;20512;-82
2021/10/23 01:41:07;;;;;;;8.88;1.33;;;7.70;99.90;;;;;;5113043;27;20047;-82
2021/10/23 01:43:34;;;;;;;7.93;1.05;;;7.70;99.90;;;;;;5103757;28;20035;-82
2021/10/23 01:46:00;;;;;;;11.30;1.00;;;7.70;99.90;;;;;;5106933;28;20040;-82
2021/10/23 01:48:26;;;;;;;7.60;1.60;;;7.80;99.90;;;;;;5124094;27;20043;-82
2021/10/23 01:50:52;;;;;;;13.20;1.58;;;7.80;99.90;;;;;;5131879;27;20044;-82
2021/10/23 01:53:18;;;;;;;9.02;1.25;;;7.90;99.90;;;;;;5126607;27;20105;-82
2021/10/23 01:55:45;;;;;;;10.25;1.10;;;7.90;99.90;;;;;;5144818;27;20122;-82
2021/10/23 01:58:11;;;;;;;6.13;0.85;;;7.90;99.90;;;;;;5111092;28;20040;-82
2021/10/23 02:00:37;;;;;;;9.82;1.08;;;8.00;99.90;;;;;;5106453;28;20048;-82
2021/10/23 02:03:02;;;;;;;7.82;1.20;;;8.00;99.90;;;;;;5110216;28;20051;-82
2021/10/23 02:05:28;;;;;;;7.43;1.10;;;8.00;99.90;;;;;;5075710;28;20147;-82
2021/10/23 02:07:54;;;;;;;6.90;0.93;;;8.10;99.90;;;;;;5059929;28;20035;-82
2021/10/23 02:10:20;;;;;;;12.20;0.95;;;8.10;99.90;;;;;;5076584;28;20051;-83
2021/10/23 02:12:45;;;;;;;10.48;1.23;;;8.10;99.90;;;;;;5095622;27;20092;-82
2021/10/23 02:15:11;;;;;;;6.10;0.80;;;8.10;99.90;;;;;;5099894;28;20043;-82
2021/10/23 02:17:37;;;;;;;13.20;1.63;;;8.10;99.90;;;;;;5126873;27;20085;-82
2021/10/23 02:20:06;;;;;;;11.82;1.15;;;8.10;99.90;;;;;;5108605;28;20101;-82
2021/10/23 02:22:32;;;;;;;16.45;1.15;;;8.10;99.90;;;;;;5127251;27;20048;-82
2021/10/23 02:24:57;;;;;;;8.07;1.10;;;8.10;99.90;;;;;;5118386;27;20048;-82
2021/10/23 02:27:23;;;;;;;11.98;1.40;;;8.10;99.90;;;;;;5127511;27;20043;-82
2021/10/23 02:29:49;;;;;;;12.90;1.40;;;8.00;99.90;;;;;;5102808;27;20062;-82
2021/10/23 02:32:15;;;;;;;7.50;0.93;;;8.00;99.90;;;;;;5091926;28;20039;-82
2021/10/23 02:34:41;;;;;;;9.63;1.00;;;8.00;99.90;;;;;;5093614;27;20027;-82
2021/10/23 02:37:07;;;;;;;11.73;1.73;;;8.00;99.90;;;;;;5091872;28;20487;-82
2021/10/23 02:39:33;;;;;;;8.20;1.10;;;8.00;99.90;;;;;;5075577;27;20043;-82
2021/10/23 02:41:59;;;;;;;14.40;1.40;;;8.00;99.90;;;;;;5093864;28;20419;-83
2021/10/23 02:44:25;;;;;;;13.35;1.70;;;8.00;99.90;;;;;;5091765;28;20047;-82
2021/10/23 02:46:51;;;;;;;15.55;1.98;;;8.00;99.90;;;;;;5075818;28;20051;-82
2021/10/23 02:49:17;;;;;;;14.70;1.30;;;8.00;99.90;;;;;;5091645;28;20100;-82
2021/10/23 02:51:44;;;;;;;12.45;2.17;;;8.00;99.90;;;;;;5110067;27;20082;-82
2021/10/23 02:54:11;;;;;;;9.00;0.93;;;8.00;99.90;;;;;;5089413;28;20044;-82
2021/10/23 02:56:37;;;;;;;16.15;1.40;;;7.90;99.90;;;;;;5091850;28;20118;-82
2021/10/23 02:59:02;;;;;;;13.68;1.17;;;7.90;99.90;;;;;;5109032;28;20144;-82
2021/10/23 03:01:28;;;;;;;8.40;1.48;;;7.90;99.90;;;;;;5092229;28;20453;-82
2021/10/23 03:03:55;;;;;;;11.73;1.42;;;7.80;99.90;;;;;;5108665;28;20067;-82
2021/10/23 03:06:20;;;;;;;12.38;1.77;;;7.80;99.90;;;;;;5092293;28;20055;-82
2021/10/23 03:08:47;;;;;;;9.73;1.30;;;7.80;99.90;;;;;;5107441;27;20375;-82
2021/10/23 03:11:13;;;;;;;10.05;1.90;;;7.90;99.90;;;;;;5114268;27;20043;-82
2021/10/23 03:13:39;;;;;;;10.52;1.10;;;7.90;99.90;;;;;;5104912;28;20046;-82
2021/10/23 03:16:05;;;;;;;16.77;2.25;;;7.80;99.90;;;;;;5121012;27;20046;-82
2021/10/23 03:18:31;;;;;;;13.02;1.75;;;7.80;99.90;;;;;;5071819;28;20035;-82
2021/10/23 03:20:57;;;;;;;17.63;2.38;;;7.80;99.90;;;;;;5088985;28;20563;-82
2021/10/23 03:23:23;;;;;;;15.02;1.73;;;7.70;99.90;;;;;;5108901;28;20499;-82
2021/10/23 03:25:49;;;;;;;20.88;2.15;;;7.70;99.90;;;;;;5091421;28;20081;-82
2021/10/23 03:28:15;;;;;;;14.05;1.48;;;7.70;99.90;;;;;;5110266;27;20043;-82
2021/10/23 03:30:41;;;;;;;11.35;1.13;;;7.70;99.90;;;;;;5072102;28;20047;-82
2021/10/23 03:33:07;;;;;;;11.32;1.88;;;7.70;99.90;;;;;;5105433;27;20137;-82
2021/10/23 03:35:33;;;;;;;11.90;1.63;;;7.70;99.90;;;;;;5107975;28;20043;-82
2021/10/23 03:37:59;;;;;;;12.70;1.30;;;7.70;99.90;;;;;;5127594;27;20040;-82
2021/10/23 03:40:24;;;;;;;13.20;2.42;;;7.70;99.90;;;;;;5080031;28;20043;-82
2021/10/23 03:42:50;;;;;;;13.88;1.40;;;7.70;99.90;;;;;;5098839;28;20066;-82
2021/10/23 03:45:16;;;;;;;10.23;1.30;;;7.70;99.90;;;;;;5073508;28;20040;-82
2021/10/23 03:47:42;;;;;;;17.45;1.63;;;7.70;99.90;;;;;;5087668;28;20048;-82
2021/10/23 03:50:09;;;;;;;10.65;1.60;;;7.60;99.90;;;;;;5106904;27;20146;-82
2021/10/23 03:52:35;;;;;;;10.40;1.10;;;7.60;99.90;;;;;;5117478;27;20377;-82
2021/10/23 03:55:01;;;;;;;10.43;1.40;;;7.60;99.90;;;;;;5071135;28;20039;-82
2021/10/23 03:57:27;;;;;;;9.60;1.40;;;7.60;99.90;;;;;;5136457;27;20046;-82
2021/10/23 03:59:52;;;;;;;9.23;1.50;;;7.60;99.90;;;;;;5117612;27;20392;-82
2021/10/23 04:02:18;;;;;;;11.90;1.42;;;7.60;99.90;;;;;;5107690;28;20518;-82
2021/10/23 04:04:44;;;;;;;13.57;1.77;;;7.60;99.90;;;;;;5124845;27;20040;-82
2021/10/23 04:07:09;;;;;;;10.18;1.65;;;7.60;99.90;;;;;;5107755;28;20090;-82
2021/10/23 04:09:35;;;;;;;7.80;1.33;;;7.60;99.90;;;;;;5058107;28;20545;-82
2021/10/23 04:12:01;;;;;;;9.43;1.33;;;7.60;99.90;;;;;;5078305;28;20039;-82
2021/10/23 04:14:27;;;;;;;11.52;1.00;;;7.50;99.90;;;;;;5087532;28;20036;-82
2021/10/23 04:16:52;;;;;;;10.77;1.02;;;7.50;99.90;;;;;;5054660;28;20507;-82
2021/10/23 04:19:18;;;;;;;11.90;1.00;;;7.50;99.90;;;;;;5097202;28;20543;-82
2021/10/23 04:21:44;;;;;;;9.10;1.30;;;7.50;99.90;;;;;;5090999;28;20040;-82
2021/10/23 04:24:10;;;;;;;13.93;1.80;;;7.50;99.90;;;;;;5054783;28;20104;-82
2021/10/23 04:26:37;;;;;;;20.00;1.73;;;7.50;99.90;;;;;;5106428;28;20040;-82
2021/10/23 04:29:04;;;;;;;12.63;2.00;;;7.60;99.90;;;;;;5117189;27;20043;-82
2021/10/23 04:31:30;;;;;;;17.95;1.85;;;7.70;99.90;;;;;;5093889;28;20050;-82
2021/10/23 04:33:55;;;;;;;12.50;1.25;;;7.70;99.90;;;;;;5097696;28;20043;-82
2021/10/23 04:36:21;;;;;;;13.63;1.75;;;7.70;99.90;;;;;;5095305;28;20043;-82
2021/10/23 04:38:47;;;;;;;9.93;1.08;;;7.80;99.90;;;;;;5090683;28;20122;-82
2021/10/23 04:41:13;;;;;;;8.23;1.45;;;7.80;99.90;;;;;;5090231;28;20130;-83
2021/10/23 04:43:39;;;;;;;13.88;1.67;;;7.90;99.90;;;;;;5110306;28;20463;-82
2021/10/23 04:46:05;;;;;;;8.85;1.23;;;7.90;99.90;;;;;;5078782;28;20051;-82
2021/10/23 04:48:34;;;;;;;16.55;1.75;;;7.90;99.90;;;;;;5090768;28;20130;-83
2021/10/23 04:51:00;;;;;;;8.75;1.05;;;7.90;99.90;;;;;;5109352;28;20040;-82
2021/10/23 04:53:26;;;;;;;9.63;1.27;;;8.00;99.90;;;;;;5103875;28;20054;-82
2021/10/23 04:55:52;;;;;;;12.65;1.63;;;8.00;99.90;;;;;;5139256;27;20065;-82
2021/10/23 04:58:17;;;;;;;9.30;1.27;;;8.00;99.90;;;;;;5115700;28;20047;-82
2021/10/23 05:00:43;;;;;;;12.13;1.58;;;8.10;99.90;;;;;;5087667;28;20047;-82
2021/10/23 05:03:09;;;;;;;9.38;1.48;;;8.10;99.90;;;;;;5070972;28;20040;-82
2021/10/23 05:05:35;;;;;;;15.32;1.55;;;8.10;99.90;;;;;;5099427;28;20051;-82
2021/10/23 05:08:00;;;;;;;9.25;1.17;;;8.10;99.90;;;;;;5061009;28;20051;-82
2021/10/23 05:10:26;;;;;;;13.15;1.30;;;8.10;99.90;;;;;;5094164;28;20087;-82
2021/10/23 05:12:52;;;;;;;12.20;0.90;;;8.20;99.90;;;;;;5077759;28;20036;-82
2021/10/23 05:15:17;;;;;;;8.77;1.20;;;8.10;99.90;;;;;;5082136;28;20038;-82
2021/10/23 05:17:43;;;;;;;9.73;1.10;;;8.10;99.90;;;;;;5094599;28;20069;-82
2021/10/23 05:20:10;;;;;;;14.07;1.73;;;8.10;99.90;;;;;;5090084;28;20070;-82
2021/10/23 05:22:35;;;;;;;6.68;1.20;;;8.10;99.90;;;;;;5093718;28;20044;-82
2021/10/23 05:25:01;;;;;;;14.25;1.25;;;8.10;99.90;;;;;;5113910;27;20379;-82
2021/10/23 05:27:27;;;;;;;12.18;1.50;;;8.00;99.90;;;;;;5120423;27;20054;-82
2021/10/23 05:29:53;;;;;;;8.88;1.38;;;8.00;99.90;;;;;;5094071;27;20070;-82
2021/10/23 05:32:18;;;;;;;11.32;1.45;;;8.00;99.90;;;;;;5111194;28;20031;-82
2021/10/23 05:34:45;;;;;;;10.02;1.10;;;8.00;99.90;;;;;;5093154;28;20040;-82
2021/10/23 05:37:11;;;;;;;10.02;1.40;;;8.00;99.90;;;;;;5112898;27;20498;-82
2021/10/23 05:39:37;;;;;;;13.40;1.65;;;8.00;99.90;;;;;;5077345;28;20085;-82
2021/10/23 05:42:03;;;;;;;11.75;1.40;;;8.00;99.90;;;;;;5127181;27;20072;-82
2021/10/23 05:44:29;;;;;;;7.45;1.35;;;7.90;99.90;;;;;;5123713;27;20122;-82
2021/10/23 05:46:55;;;;;;;11.40;2.08;;;7.90;99.90;;;;;;5086571;27;20134;-82
2021/10/23 05:49:21;;;;;;;13.65;1.83;;;8.00;99.90;;;;;;5094052;28;20036;-82
2021/10/23 05:51:47;;;;;;;17.70;1.85;;;8.00;99.90;;;;;;5093452;28;20039;-82
2021/10/23 05:54:12;;;;;;;11.05;1.75;;;8.10;99.90;;;;;;5127728;27;20511;-82
2021/10/23 05:56:38;;;;;;;13.55;1.40;;;8.10;99.90;;;;;;5111851;27;20145;-82
2021/10/23 05:59:11;;;;;;;8.27;1.48;;;8.10;99.90;;;;;;5123941;27;20048;-82
2021/10/23 06:01:44;;;;;;;12.20;1.73;;;8.10;99.90;;;;;;5115305;27;20043;-82
2021/10/23 06:04:09;;;;;;;13.85;1.63;;;8.10;99.90;;;;;;5127060;27;20035;-82
2021/10/23 06:06:37;;;;;;;16.20;2.50;;;8.00;99.90;;;;;;5137582;27;20501;-82
2021/10/23 06:09:04;;;;;;;11.55;1.73;;;8.00;99.90;;;;;;5102644;28;20051;-82
2021/10/23 06:11:30;;;;;;;15.98;1.52;;;8.00;99.90;;;;;;5096125;27;20036;-82
2021/10/23 06:13:58;;;;;;;10.32;1.42;;;7.90;99.90;;;;;;5117707;27;20486;-82
2021/10/23 06:16:25;;;;;;;13.90;1.80;;;7.90;99.90;;;;;;5097963;28;20048;-83
2021/10/23 06:18:50;;;;;;;12.20;1.65;;;7.90;99.90;;;;;;5109126;28;20071;-82
2021/10/23 06:21:16;;;;;;;17.88;1.85;;;7.90;99.90;;;;;;5098580;27;20077;-82
2021/10/23 06:23:42;;;;;;;14.45;2.05;;;7.90;99.90;;;;;;5102686;28;20043;-82
2021/10/23 06:26:08;;;;;;;16.13;1.88;;;7.90;99.90;;;;;;5116877;27;20050;-82
2021/10/23 06:28:36;;;;;;;11.85;1.65;;;7.90;99.90;;;;;;5092255;27;20122;-82
2021/10/23 06:31:04;;;;;;;10.07;2.58;;;7.90;99.90;;;;;;5104017;27;20425;-82
2021/10/23 06:33:29;;;;;;;14.98;1.50;;;7.90;99.90;;;;;;5123734;27;20514;-83
2021/10/23 06:35:55;;;;;;;13.85;1.90;;;7.90;99.90;;;;;;5079981;27;20039;-83
2021/10/23 06:38:21;;;;;;;15.43;1.80;;;7.90;99.90;;;;;;5109402;28;20042;-82
2021/10/23 06:40:47;;;;;;;14.18;1.60;;;7.90;99.90;;;;;;5077409;28;20059;-82
2021/10/23 06:43:13;;;;;;;9.25;1.40;;;7.90;99.90;;;;;;5092452;28;20043;-82
2021/10/23 06:45:38;;;;;;;15.07;1.55;;;7.90;99.90;;;;;;5076325;27;20098;-82
2021/10/23 06:48:05;;;;;;;12.32;2.15;;;7.80;99.90;;;;;;5121262;27;20047;-82
2021/10/23 06:50:31;;;;;;;16.92;1.65;;;7.80;99.90;;;;;;5092312;28;20040;-82
2021/10/23 06:52:57;;;;;;;13.20;2.05;;;7.80;99.90;;;;;;5058524;28;20043;-82
2021/10/23 06:55:22;;;;;;;15.48;1.55;;;7.80;99.90;;;;;;5108063;28;20490;-82
2021/10/23 06:57:48;;;;;;;12.35;2.67;;;7.70;99.90;;;;;;5123639;27;20052;-82
2021/10/23 07:00:15;;;;;;;9.48;1.73;;;7.80;99.90;;;;;;5092741;28;20066;-84
2021/10/23 07:02:43;;;;;;;21.85;2.35;;;7.70;99.90;;;;;;5126083;27;20046;-83
2021/10/23 07:05:15;;;;;;;13.95;1.90;;;7.70;99.90;;;;;;5133289;27;20043;-83
2021/10/23 07:07:41;;;;;;;14.98;1.65;;;7.70;99.90;;;;;;5143745;27;20056;-83
2021/10/23 07:10:08;;;;;;;14.65;1.45;;;7.70;99.90;;;;;;5110936;28;20402;-83
2021/10/23 07:12:34;;;;;;;13.77;1.40;;;7.70;99.90;;;;;;5075184;28;20039;-86
2021/10/23 07:15:00;;;;;;;12.23;1.60;;;7.70;99.90;;;;;;5109619;28;20044;-84
2021/10/23 07:17:26;;;;;;;10.13;1.52;;;7.80;99.90;;;;;;5108506;28;20069;-85
2021/10/23 07:19:52;;;;;;;10.40;1.40;;;7.80;99.90;;;;;;5108224;28;20050;-85
2021/10/23 07:22:18;;;;;;;13.27;2.58;;;7.80;99.90;;;;;;5090937;28;20573;-85
2021/10/23 07:24:44;;;;;;;6.40;1.42;;;7.90;99.90;;;;;;5091699;28;20085;-84
2021/10/23 07:27:10;;;;;;;9.88;2.20;;;7.90;99.90;;;;;;5074175;28;20039;-84
2021/10/23 07:29:36;;;;;;;13.88;1.73;;;7.90;99.90;;;;;;5143823;27;20123;-84
2021/10/23 07:32:01;;;;;;;15.35;2.42;;;7.90;99.90;;;;;;5108409;28;20040;-84
2021/10/23 07:34:27;;;;;;;16.90;1.80;;;7.90;99.90;;;;;;5133152;27;20142;-85
2021/10/23 07:36:53;;;;;;;9.85;1.45;;;8.00;99.90;;;;;;5092368;28;20046;-84
2021/10/23 07:39:18;;;;;;;14.27;1.50;;;8.00;99.90;;;;;;5123597;27;20039;-85
2021/10/23 07:41:46;;;;;;;14.88;1.80;;;8.10;99.90;;;;;;5079593;28;20036;-85
2021/10/23 07:44:12;;;;;;;7.53;1.50;;;8.10;99.90;;;;;;5109599;27;20031;-85
2021/10/23 07:46:39;;;;;;;13.20;1.48;;;8.20;99.90;;;;;;5113606;27;20505;-86
2021/10/23 07:49:06;;;;;;;9.73;1.40;;;8.20;99.90;;;;;;5101065;27;20043;-86
2021/10/23 07:51:39;;;;;;;15.93;1.73;;;8.20;99.90;;;;;;5136325;27;20062;-89
2021/10/23 07:54:06;;;;;;;9.77;1.20;;;8.20;99.90;;;;;;5092133;28;20039;-86
2021/10/23 07:56:32;;;;;;;10.85;1.63;;;8.30;99.90;;;;;;5099859;28;20054;-87
2021/10/23 07:59:00;;;;;;;11.90;1.77;;;8.30;99.90;;;;;;5095450;27;20032;-91
2021/10/23 08:01:27;;;;;;;11.05;1.70;;;8.30;99.90;;;;;;5094455;28;20122;-90
2021/10/23 08:03:53;;;;;;;13.75;3.05;;;8.40;99.90;;;;;;5118146;27;20042;-87
2021/10/23 08:06:19;;;;;;;12.55;1.50;;;8.40;99.90;;;;;;5111551;27;20091;-87
2021/10/23 08:08:44;;;;;;;13.68;1.90;;;8.40;99.90;;;;;;5099261;27;20144;-83
2021/10/23 08:11:10;;;;;;;12.13;1.35;;;8.50;99.90;;;;;;5073927;28;20044;-84
2021/10/23 08:13:36;;;;;;;17.88;1.40;;;8.50;99.90;;;;;;5091223;28;20069;-86
2021/10/23 08:16:03;;;;;;;11.30;1.70;;;8.50;99.90;;;;;;5099343;28;20056;-86
2021/10/23 08:18:29;;;;;;;9.20;1.25;;;8.60;99.90;;;;;;5092368;28;20118;-82
2021/10/23 08:20:55;;;;;;;8.82;1.75;;;8.60;99.90;;;;;;5076099;27;20051;-83
2021/10/23 08:23:25;;;;;;;15.60;2.10;;;8.60;99.90;;;;;;5109498;27;20146;-83
2021/10/23 08:25:54;;;;;;;7.28;1.67;;;8.60;99.90;;;;;;5107161;28;20048;-83
2021/10/23 08:28:22;;;;;;;10.43;1.27;;;8.70;99.90;;;;;;5124731;27;20043;-83
2021/10/23 08:30:48;;;;;;;10.52;1.60;;;8.70;99.90;;;;;;5106938;28;20047;-83
2021/10/23 08:33:14;;;;;;;8.43;1.42;;;8.70;99.90;;;;;;5073993;28;20127;-83
2021/10/23 08:35:40;;;;;;;13.00;1.50;;;8.70;99.90;;;;;;5090033;28;20146;-83
2021/10/23 08:38:05;;;;;;;11.75;1.33;;;8.70;99.90;;;;;;5073966;28;20040;-83
2021/10/23 08:40:31;;;;;;;9.35;1.20;;;8.70;99.90;;;;;;5090429;28;20036;-83
2021/10/23 08:42:57;;;;;;;7.93;1.20;;;8.70;99.90;;;;;;5076927;28;20460;-83
2021/10/23 08:45:23;;;;;;;11.57;1.40;;;8.70;99.90;;;;;;5094578;28;20047;-83
2021/10/23 08:47:49;;;;;;;8.57;1.42;;;8.80;99.90;;;;;;5094752;28;20066;-83
2021/10/23 08:50:18;;;;;;;7.22;1.20;;;8.80;99.90;;;;;;5093852;28;20039;-83
2021/10/23 08:52:49;;;;;;;13.32;1.58;;;8.90;99.90;;;;;;5094733;28;20390;-83
2021/10/23 08:55:15;;;;;;;10.20;1.52;;;8.90;99.90;;;;;;5110955;28;20433;-83
2021/10/23 08:57:42;;;;;;;11.73;1.15;;;9.00;99.90;;;;;;5078096;28;20383;-83
2021/10/23 09:00:09;;;;;;;15.20;1.67;;;9.10;99.90;;;;;;5111624;28;20054;-83
2021/10/23 09:02:35;;;;;;;13.55;1.50;;;9.10;99.90;;;;;;5111787;28;20086;-83
2021/10/23 09:05:00;;;;;;;13.05;1.58;;;9.20;99.90;;;;;;5111050;28;20070;-83
2021/10/23 09:07:27;;;;;;;15.07;2.13;;;9.30;99.90;;;;;;5111670;28;20058;-83
2021/10/23 09:09:59;;;;;;;6.85;1.48;;;9.30;99.90;;;;;;5093981;28;20055;-83
2021/10/23 09:12:33;;;;;;;10.63;1.88;;;9.30;99.90;;;;;;5094792;28;20406;-83
2021/10/23 09:15:10;;;;;;;5.85;1.20;;;9.40;99.90;;;;;;5109143;28;20035;-83
2021/10/23 09:17:38;;;;;;;19.15;2.60;;;9.50;99.90;;;;;;5124650;27;20115;-83
2021/10/23 09:20:10;;;;;;;6.40;1.48;;;9.50;99.90;;;;;;5110717;27;20454;-84
2021/10/23 09:22:39;;;;;;;8.18;1.20;;;9.60;99.90;;;;;;5111081;27;20031;-83
2021/10/23 09:25:18;;;;;;;10.27;1.58;;;9.60;99.90;;;;;;5092656;28;20094;-83
2021/10/23 09:27:45;;;;;;;8.75;1.70;;;9.70;99.90;;;;;;5111723;27;20063;-83
2021/10/23 09:30:12;;;;;;;11.15;1.30;;;9.70;99.90;;;;;;5128273;27;20047;-83
2021/10/23 09:32:38;;;;;;;7.60;1.50;;;9.70;99.90;;;;;;5120266;27;20034;-83
2021/10/23 09:35:14;;;;;;;14.07;1.88;;;9.80;99.90;;;;;;5123405;27;20384;-83
2021/10/23 09:37:44;;;;;;;6.43;1.27;;;9.80;99.90;;;;;;5084106;27;20035;-83
2021/10/23 09:40:14;;;;;;;5.57;0.90;;;9.80;99.90;;;;;;5080528;28;20543;-83
2021/10/23 09:42:40;;;;;;;9.07;1.38;;;9.80;99.90;;;;;;5100891;27;20051;-83
2021/10/23 09:45:06;;;;;;;10.23;1.77;;;9.80;99.90;;;;;;5097120;27;20493;-83
2021/10/23 09:47:46;;;;;;;11.77;1.25;;;9.90;99.90;;;;;;5079720;28;20028;-83
2021/10/23 09:50:21;;;;;;;8.02;1.58;;;9.90;99.90;;;;;;5083725;28;20558;-83
2021/10/23 09:53:09;;;;;;;9.55;1.40;;;9.90;99.90;;;;;;5092832;28;20059;-83
2021/10/23 09:55:51;;;;;;;11.20;1.60;;;9.90;99.90;;;;;;5095501;28;20490;-83
2021/10/23 09:58:20;;;;;;;11.55;2.15;;;10.00;99.90;;;;;;5107209;27;20050;-83
2021/10/23 10:00:47;;;;;;;12.82;1.30;;;10.00;99.90;;;;;;5068907;28;20051;-83
2021/10/23 10:03:14;;;;;;;10.25;1.27;;;10.00;99.90;;;;;;5094458;27;20051;-83
2021/10/23 10:05:41;;;;;;;9.18;1.00;;;10.10;99.90;;;;;;5082109;28;20055;-84
2021/10/23 10:08:10;;;;;;;8.07;1.80;;;10.10;99.90;;;;;;5111076;27;20054;-84
2021/10/23 10:10:42;;;;;;;10.00;1.70;;;10.10;99.90;;;;;;5092751;28;20046;-85
2021/10/23 10:13:10;;;;;;;10.75;1.35;;;10.20;99.90;;;;;;5125516;27;20046;-84
2021/10/23 10:15:58;;;;;;;6.05;1.25;;;10.20;99.90;;;;;;5126755;27;20048;-83
2021/10/23 10:18:25;;;;;;;13.52;1.83;;;10.20;99.90;;;;;;5112241;27;20088;-84
2021/10/23 10:20:53;;;;;;;12.48;1.38;;;10.30;99.90;;;;;;5093361;28;20439;-84
2021/10/23 10:23:29;;;;;;;10.30;1.20;;;10.40;99.90;;;;;;5109089;28;20120;-84
2021/10/23 10:26:32;;;;;;;13.05;1.50;;;10.40;99.90;;;;;;5107460;28;20520;-84
2021/10/23 10:29:29;;;;;;;12.32;2.03;;;10.40;99.90;;;;;;5107807;28;20050;-84
2021/10/23 10:32:18;;;;;;;9.15;1.23;;;10.50;99.90;;;;;;5124124;27;20057;-84
2021/10/23 10:42:58;;;;;;;10.48;1.30;;;10.60;99.90;;;;;;5141486;27;20039;-84
2021/10/23 10:45:51;;;;;;;13.25;1.42;;;10.60;99.90;;;;;;5089647;28;20052;-84
2021/10/23 10:48:25;;;;;;;7.10;2.03;;;10.50;99.90;;;;;;5141442;27;20054;-84
2021/10/23 10:50:53;;;;;;;14.07;1.60;;;10.50;99.90;;;;;;5129240;27;20144;-84
2021/10/23 10:53:23;;;;;;;10.55;1.20;;;10.50;99.90;;;;;;5090245;28;20126;-84
2021/10/23 10:55:59;;;;;;;9.65;1.88;;;10.60;99.90;;;;;;5106166;28;20039;-84
2021/10/23 10:58:47;;;;;;;7.28;1.50;;;10.60;99.90;;;;;;5106724;28;20035;-84
2021/10/23 11:01:26;;;;;;;6.57;1.65;;;10.60;99.90;;;;;;5091520;28;20407;-84
2021/10/23 11:03:52;;;;;;;12.25;1.48;;;10.60;99.90;;;;;;5091979;28;20047;-84
2021/10/23 11:06:42;;;;;;;9.60;1.67;;;10.60;99.90;;;;;;5091347;28;20074;-84
2021/10/23 11:09:10;;;;;;;11.50;1.40;;;10.70;99.90;;;;;;5109403;28;20055;-84
2021/10/23 11:11:45;;;;;;;9.43;1.00;;;10.70;99.90;;;;;;5091124;28;20050;-84
2021/10/23 11:14:33;;;;;;;10.93;1.90;;;10.70;99.90;;;;;;5109032;28;20040;-84
2021/10/23 11:17:15;;;;;;;6.53;1.13;;;10.70;99.90;;;;;;5108682;28;20491;-84
2021/10/23 11:19:59;;;;;;;12.70;2.38;;;10.70;99.90;;;;;;5142855;27;20043;-84
2021/10/23 11:22:34;;;;;;;9.55;1.23;;;10.70;99.90;;;;;;5126305;27;20054;-84
2021/10/23 11:25:05;;;;;;;9.63;1.25;;;10.70;99.90;;;;;;5143127;27;20116;-84
2021/10/23 11:27:47;;;;;;;9.32;1.50;;;10.70;99.90;;;;;;5143038;27;20047;-84
2021/10/23 11:30:23;;;;;;;10.95;1.23;;;10.70;99.90;;;;;;5109041;28;20047;-84
2021/10/23 11:33:04;;;;;;;9.95;1.95;;;10.70;99.90;;;;;;5108325;28;20043;-84
2021/10/23 11:35:39;;;;;;;11.48;1.50;;;10.70;99.90;;;;;;5125981;27;20046;-84
2021/10/23 11:38:07;;;;;;;10.90;1.83;;;10.60;99.90;;;;;;5142444;27;20043;-84
2021/10/23 11:40:36;;;;;;;11.55;1.85;;;10.60;99.90;;;;;;5143055;27;20054;-84
2021/10/23 11:43:03;;;;;;;11.75;1.85;;;10.60;99.90;;;;;;5091370;28;20089;-84
2021/10/23 11:45:33;;;;;;;9.10;1.48;;;10.60;99.90;;;;;;5091607;28;20151;-84
2021/10/23 11:48:10;;;;;;;14.65;1.75;;;10.60;99.90;;;;;;5107501;28;20046;-84
2021/10/23 11:50:41;;;;;;;6.38;1.40;;;10.60;99.90;;;;;;5106882;28;20047;-84
2021/10/23 11:53:25;;;;;;;7.07;1.50;;;10.60;99.90;;;;;;5125707;27;20043;-84
2021/10/23 11:55:55;;;;;;;8.27;1.30;;;10.60;99.90;;;;;;5142045;27;20036;-84
2021/10/23 11:58:35;;;;;;;12.13;2.28;;;10.60;99.90;;;;;;5091245;28;20311;-84
2021/10/23 12:01:10;;;;;;;9.88;1.45;;;10.60;99.90;;;;;;5125547;27;20043;-84
2021/10/23 12:03:41;;;;;;;10.55;2.03;;;10.60;99.90;;;;;;5125374;27;20077;-84
2021/10/23 12:06:20;;;;;;;9.20;2.10;;;10.60;99.90;;;;;;5090634;28;20059;-84
2021/10/23 12:08:49;;;;;;;8.07;1.23;;;10.60;99.90;;;;;;5084855;28;20047;-84
2021/10/23 12:11:23;;;;;;;6.00;1.55;;;10.60;99.90;;;;;;5090340;28;20441;-84
2021/10/23 12:14:05;;;;;;;8.25;1.00;;;10.60;99.90;;;;;;5108263;28;20053;-84
2021/10/23 12:16:39;;;;;;;9.90;1.40;;;10.70;99.90;;;;;;5106553;28;20119;-84
2021/10/23 12:19:16;;;;;;;10.40;1.40;;;10.70;99.90;;;;;;5141967;27;20153;-84
2021/10/23 12:21:53;;;;;;;12.05;1.30;;;10.70;99.90;;;;;;5107728;28;20031;-84
2021/10/23 12:24:30;;;;;;;8.05;1.23;;;10.70;99.90;;;;;;5142389;27;20054;-84
2021/10/23 12:27:08;;;;;;;11.27;1.08;;;10.70;99.90;;;;;;5132136;27;20036;-84
2021/10/23 12:29:40;;;;;;;11.68;1.45;;;10.70;99.90;;;;;;5122163;28;20525;-84
2021/10/23 12:32:20;;;;;;;11.48;1.83;;;10.80;99.90;;;;;;5091058;28;20104;-84
2021/10/23 12:34:52;;;;;;;7.68;1.10;;;10.80;99.90;;;;;;5085560;28;20469;-84
2021/10/23 12:37:26;;;;;;;9.57;1.80;;;10.80;99.90;;;;;;5093162;28;20039;-84
2021/10/23 12:40:24;;;;;;;8.32;1.48;;;10.80;99.90;;;;;;5114770;28;20537;-84
2021/10/23 12:42:55;;;;;;;10.85;1.30;;;10.80;99.90;;;;;;5125601;27;20550;-83
2021/10/23 12:45:23;;;;;;;10.73;1.15;;;10.80;99.90;;;;;;5101649;28;20101;-83
2021/10/23 12:47:51;;;;;;;11.95;1.92;;;10.80;99.90;;;;;;5092097;28;20042;-83
2021/10/23 12:50:22;;;;;;;7.72;1.10;;;10.90;99.90;;;;;;5084746;28;20453;-83
2021/10/23 12:52:49;;;;;;;9.07;1.50;;;10.90;99.90;;;;;;5081774;28;20044;-83
2021/10/23 12:55:16;;;;;;;8.27;1.40;;;10.90;99.90;;;;;;5077555;28;20043;-83
2021/10/23 12:57:42;;;;;;;12.10;1.80;;;11.00;99.90;;;;;;5061580;28;20040;-84
2021/10/23 13:00:10;;;;;;;11.63;1.73;;;11.00;99.90;;;;;;5118448;28;20055;-83
2021/10/23 13:02:36;;;;;;;7.10;1.23;;;11.00;99.90;;;;;;5097286;28;20122;-83